Time;durP1;ratioP1;P1;durP2;ratioP2;P2;SDS_P1;SDS_P2;PMS_P1;PMS_P2;Temp;Humidity;BMP_temperature;BMP_pressure;BME280_temperature;BME280_humidity;BME280_pressure;Samples;Min_cycle;Max_cycle;Signal;HPM_P1;HPM_P2
2022/11/04 00:01:17;;;;;;;;;;;;;;;17.13;41.37;99109.22;4963136;28;19926;-68
2022/11/04 00:03:42;;;;;;;;;;;;;;;17.12;41.48;99105.75;4946174;28;19919;-68
2022/11/04 00:06:07;;;;;;;;;;;;;;;17.10;41.45;99104.25;4963419;28;19918;-68
2022/11/04 00:08:33;;;;;;;;;;;;;;;17.09;41.37;99107.84;4963486;28;19926;-68
2022/11/04 00:13:42;;;;;;;;;;;;;;;17.04;41.67;99100.38;4964230;28;19925;-68
2022/11/04 00:18:51;;;;;;;;;;;;;;;17.02;41.57;99102.34;4975271;28;19926;-68
2022/11/04 00:29:28;;;;;;;;;;;;;;;16.95;41.75;99101.28;4959841;28;19924;-68
2022/11/04 00:34:37;;;;;;;;;;;;;;;16.88;42.06;99092.31;4975033;28;19926;-68
2022/11/04 00:37:02;;;;;;;;;;;;;;;16.85;42.17;99087.31;4956875;28;19930;-67
2022/11/04 00:39:28;;;;;;;;;;;;;;;16.83;41.98;99090.09;4974978;28;19945;-67
2022/11/04 00:41:53;;;;;;;;;;;;;;;16.83;42.18;99084.81;4957553;28;19922;-68
2022/11/04 00:44:19;;;;;;;;;;;;;;;16.81;42.05;99081.50;4974890;28;19918;-68
2022/11/04 00:46:44;;;;;;;;;;;;;;;16.79;42.21;99081.66;4975001;28;20065;-67
2022/11/04 00:49:09;;;;;;;;;;;;;;;16.77;42.10;99078.31;4974758;28;20065;-70
2022/11/04 00:51:35;;;;;;;;;;;;;;;16.76;42.28;99083.75;4957716;28;20000;-68
2022/11/04 00:54:00;;;;;;;;;;;;;;;16.73;42.21;99073.50;4933217;29;20020;-67
2022/11/04 00:56:25;;;;;;;;;;;;;;;16.72;42.31;99079.75;4973840;28;20025;-67
2022/11/04 00:58:51;;;;;;;;;;;;;;;16.69;42.49;99069.50;4957144;28;19918;-67
2022/11/04 01:01:16;;;;;;;;;;;;;;;16.68;42.41;99073.94;4941437;28;19918;-68
2022/11/04 01:03:41;;;;;;;;;;;;;;;16.67;42.32;99076.72;4974552;28;20013;-68
2022/11/04 01:06:07;;;;;;;;;;;;;;;16.64;42.53;99070.78;4974507;28;19918;-68
2022/11/04 01:08:32;;;;;;;;;;;;;;;16.62;42.37;99074.56;4974371;28;20417;-68
2022/11/04 01:11:01;;;;;;;;;;;;;;;16.59;42.53;99067.75;4940409;28;20461;-69
2022/11/04 01:13:27;;;;;;;;;;;;;;;16.58;42.60;99063.47;4946587;29;19926;-69
2022/11/04 01:15:52;;;;;;;;;;;;;;;16.56;42.50;99061.97;4937829;29;19918;-68
2022/11/04 01:18:17;;;;;;;;;;;;;;;16.52;42.77;99058.78;4953719;29;19918;-67
2022/11/04 01:20:42;;;;;;;;;;;;;;;16.52;42.68;99065.84;4953841;29;19922;-67
2022/11/04 01:23:08;;;;;;;;;;;;;;;16.50;42.94;99062.56;4953789;29;20382;-67
2022/11/04 01:25:33;;;;;;;;;;;;;;;16.49;42.71;99063.50;4954581;29;19922;-67
2022/11/04 01:27:58;;;;;;;;;;;;;;;16.45;42.93;99069.06;4954408;29;19919;-67
2022/11/04 01:30:23;;;;;;;;;;;;;;;16.44;42.99;99079.75;4937570;29;19918;-68
2022/11/04 01:32:49;;;;;;;;;;;;;;;16.43;42.92;99070.19;4954849;29;19918;-68
2022/11/04 01:35:14;;;;;;;;;;;;;;;16.40;43.10;99067.88;4954619;29;20013;-68
2022/11/04 01:37:39;;;;;;;;;;;;;;;16.39;43.27;99066.22;4966881;28;19933;-68
2022/11/04 01:40:05;;;;;;;;;;;;;;;16.37;43.10;99062.91;4953210;28;19919;-67
2022/11/04 01:42:30;;;;;;;;;;;;;;;16.35;42.99;99060.41;4936167;29;20393;-68
2022/11/04 01:44:57;;;;;;;;;;;;;;;16.33;42.91;99059.69;4953585;29;19922;-67
2022/11/04 01:47:27;;;;;;;;;;;;;;;16.31;43.24;99055.56;4953859;29;19918;-67
2022/11/04 01:49:54;;;;;;;;;;;;;;;16.30;43.27;99051.28;4953665;29;19969;-67
2022/11/04 01:52:27;;;;;;;;;;;;;;;16.27;43.42;99053.22;4953461;29;19918;-67
2022/11/04 01:54:53;;;;;;;;;;;;;;;16.25;43.37;99052.53;4954317;28;19926;-69
2022/11/04 01:57:19;;;;;;;;;;;;;;;16.24;43.39;99047.41;4953748;29;19918;-68
2022/11/04 01:59:45;;;;;;;;;;;;;;;16.23;43.43;99041.31;4954626;29;19918;-67
2022/11/04 02:02:10;;;;;;;;;;;;;;;16.20;43.41;99043.41;4953299;29;20025;-68
2022/11/04 02:04:35;;;;;;;;;;;;;;;16.18;43.48;99038.28;4954522;28;19977;-67
2022/11/04 02:07:05;;;;;;;;;;;;;;;16.17;43.55;99038.44;4953293;29;19925;-68
2022/11/04 02:09:30;;;;;;;;;;;;;;;16.17;43.51;99038.44;4953086;29;20456;-68
2022/11/04 02:14:40;;;;;;;;;;;;;;;16.13;43.69;99029.16;4953407;29;19925;-67
2022/11/04 02:17:28;;;;;;;;;;;;;;;16.12;43.66;99043.31;4953022;29;19918;-68
2022/11/04 02:20:05;;;;;;;;;;;;;;;16.11;43.58;99039.84;4948696;29;19922;-69
2022/11/04 02:22:51;;;;;;;;;;;;;;;16.08;43.68;99024.31;4953518;29;19930;-67
2022/11/04 02:25:16;;;;;;;;;;;;;;;16.07;43.54;99030.59;4967638;28;20385;-67
2022/11/04 02:27:41;;;;;;;;;;;;;;;16.05;43.63;99030.72;4973552;28;19941;-68
2022/11/04 02:30:10;;;;;;;;;;;;;;;16.04;43.66;99025.59;4973500;28;19925;-67
2022/11/04 02:32:41;;;;;;;;;;;;;;;16.04;43.72;99022.97;4988488;28;19918;-67
2022/11/04 02:35:25;;;;;;;;;;;;;;;16.02;43.71;99028.38;4973360;28;20414;-68
2022/11/04 02:38:02;;;;;;;;;;;;;;;16.00;43.87;99024.22;4973256;28;19926;-68
2022/11/04 02:40:28;;;;;;;;;;;;;;;15.99;43.98;99015.50;4956158;28;19918;-68
2022/11/04 02:42:56;;;;;;;;;;;;;;;15.98;43.83;99013.84;4973427;28;19976;-68
2022/11/04 02:45:23;;;;;;;;;;;;;;;15.99;44.00;99015.50;4973448;28;19937;-68
2022/11/04 02:47:49;;;;;;;;;;;;;;;15.99;43.89;99014.69;4956184;28;19918;-68
2022/11/04 02:50:26;;;;;;;;;;;;;;;16.00;44.05;99014.53;4956218;28;20496;-68
2022/11/04 02:52:54;;;;;;;;;;;;;;;15.99;44.07;99017.31;4975338;28;19922;-68
2022/11/04 02:55:26;;;;;;;;;;;;;;;16.00;44.00;99018.97;4959670;28;19918;-68
2022/11/04 02:57:52;;;;;;;;;;;;;;;16.00;44.05;99018.97;4960028;28;19951;-69
2022/11/04 03:00:20;;;;;;;;;;;;;;;15.99;44.14;99019.97;4959648;28;19934;-68
2022/11/04 03:02:47;;;;;;;;;;;;;;;16.00;44.05;99018.97;4976764;28;20431;-69
2022/11/04 03:05:13;;;;;;;;;;;;;;;15.97;44.26;99014.84;4959305;28;19918;-69
2022/11/04 03:07:39;;;;;;;;;;;;;;;15.97;44.21;99014.84;4959389;28;20025;-69
2022/11/04 03:10:05;;;;;;;;;;;;;;;15.98;44.28;99018.28;4959369;28;20001;-68
2022/11/04 03:12:32;;;;;;;;;;;;;;;15.98;44.27;99013.03;4959188;28;19918;-68
2022/11/04 03:14:59;;;;;;;;;;;;;;;15.98;44.17;99013.03;4958974;28;20039;-68
2022/11/04 03:17:48;;;;;;;;;;;;;;;15.97;44.24;99008.72;4959046;28;19960;-68
2022/11/04 03:20:15;;;;;;;;;;;;;;;15.95;44.21;99013.31;4965520;28;19960;-68
2022/11/04 03:22:41;;;;;;;;;;;;;;;15.94;44.34;99014.28;4976173;28;20377;-68
2022/11/04 03:25:06;;;;;;;;;;;;;;;15.94;44.40;99012.50;4976572;28;19925;-68
2022/11/04 03:27:34;;;;;;;;;;;;;;;15.91;44.31;99018.84;4959342;28;19918;-68
2022/11/04 03:30:13;;;;;;;;;;;;;;;15.92;44.27;99019.69;4958699;28;19922;-68
2022/11/04 03:32:49;;;;;;;;;;;;;;;15.90;44.34;99009.28;4976168;28;20413;-68
2022/11/04 03:35:14;;;;;;;;;;;;;;;15.91;44.28;99012.78;4954516;29;19923;-68
2022/11/04 03:37:40;;;;;;;;;;;;;;;15.89;44.41;99009.44;4957065;29;19933;-68
2022/11/04 03:40:06;;;;;;;;;;;;;;;15.88;44.42;99007.81;4954629;29;20464;-68
2022/11/04 03:42:31;;;;;;;;;;;;;;;15.85;44.38;99006.28;4939210;29;19946;-68
2022/11/04 03:44:56;;;;;;;;;;;;;;;15.85;44.56;99002.81;4938716;29;19919;-68
2022/11/04 03:47:26;;;;;;;;;;;;;;;15.84;44.53;99007.25;4956635;29;20017;-68
2022/11/04 03:49:58;;;;;;;;;;;;;;;15.82;44.39;99011.81;4939197;29;19946;-68
2022/11/04 03:52:23;;;;;;;;;;;;;;;15.81;44.40;99004.88;4956330;29;19922;-68
2022/11/04 03:54:48;;;;;;;;;;;;;;;15.79;44.57;99001.59;4939695;29;19926;-68
2022/11/04 03:57:17;;;;;;;;;;;;;;;15.79;44.43;99000.75;4939295;29;19918;-68
2022/11/04 03:59:56;;;;;;;;;;;;;;;15.77;44.45;99002.72;4954277;29;19974;-68
2022/11/04 04:02:25;;;;;;;;;;;;;;;15.76;44.65;98996.56;4949867;29;19919;-68
2022/11/04 04:04:53;;;;;;;;;;;;;;;15.73;44.48;98997.72;4927421;29;19925;-68
2022/11/04 04:07:20;;;;;;;;;;;;;;;15.70;44.55;98994.50;4956651;29;20298;-68
2022/11/04 04:09:50;;;;;;;;;;;;;;;15.68;44.59;98997.28;4938934;29;19922;-68
2022/11/04 04:12:15;;;;;;;;;;;;;;;15.66;44.61;98996.59;4923085;29;19923;-68
2022/11/04 04:14:50;;;;;;;;;;;;;;;15.63;44.78;98999.53;4954942;29;19977;-68
2022/11/04 04:17:28;;;;;;;;;;;;;;;15.61;44.77;99003.25;4938694;29;19918;-68
2022/11/04 04:19:56;;;;;;;;;;;;;;;15.58;44.86;99007.03;4923204;29;20397;-70
2022/11/04 04:22:26;;;;;;;;;;;;;;;15.56;44.89;99011.63;4938898;29;19958;-68
2022/11/04 04:27:35;;;;;;;;;;;;;;;15.52;44.85;99000.50;4941434;29;20361;-68
2022/11/04 04:30:01;;;;;;;;;;;;;;;15.52;44.78;99004.97;4944133;28;19922;-67
2022/11/04 04:32:27;;;;;;;;;;;;;;;15.52;44.83;99002.34;4957785;28;20005;-68
2022/11/04 04:35:40;;;;;;;;;;;;;;;15.51;44.80;99016.44;4957540;28;20301;-68
2022/11/04 04:37:40;;;;;;;;;;;;;;;15.49;44.89;99008.69;4971274;28;19930;-67
2022/11/04 04:45:35;;;;;;;;;;;;;;;15.51;46.63;99012.03;4973756;28;19962;-67
2022/11/04 04:48:00;;;;;;;;;;;;;;;15.49;46.39;99008.69;4973309;28;19918;-67
2022/11/04 04:50:27;;;;;;;;;;;;;;;15.47;46.18;99008.00;4973892;28;20013;-67
2022/11/04 04:52:53;;;;;;;;;;;;;;;15.46;45.96;99008.16;4973535;28;19926;-67
2022/11/04 04:55:18;;;;;;;;;;;;;;;15.45;45.81;99009.97;4974478;28;19919;-67
2022/11/04 04:57:43;;;;;;;;;;;;;;;15.47;45.64;99001.94;4956801;28;20504;-71
2022/11/04 05:00:11;;;;;;;;;;;;;;;15.48;45.55;99012.31;4955046;29;19926;-70
2022/11/04 05:02:36;;;;;;;;;;;;;;;15.51;47.76;99001.50;4953812;29;19940;-73
2022/11/04 05:05:02;;;;;;;;;;;;;;;15.56;47.25;99001.09;4953908;29;20005;-70
2022/11/04 05:07:27;;;;;;;;;;;;;;;15.60;46.78;99001.63;4971138;28;19922;-69
2022/11/04 05:09:52;;;;;;;;;;;;;;;15.61;46.39;99009.38;4972774;28;19918;-71
2022/11/04 05:12:19;;;;;;;;;;;;;;;15.65;45.99;99012.53;4974455;28;20064;-71
2022/11/04 05:14:44;;;;;;;;;;;;;;;15.70;45.79;99011.16;4972833;28;19929;-71
2022/11/04 05:17:09;;;;;;;;;;;;;;;15.75;45.63;99018.63;4972511;28;19922;-71
2022/11/04 05:19:35;;;;;;;;;;;;;;;15.95;54.55;99029.94;4956846;28;20306;-71
2022/11/04 05:22:00;;;;;;;;;;;;;;;16.22;51.27;99030.91;4957965;29;20385;-69
2022/11/04 05:24:25;;;;;;;;;;;;;;;16.35;48.99;99025.31;4953561;29;19919;-70
2022/11/04 05:26:50;;;;;;;;;;;;;;;16.37;48.51;99026.84;4937512;29;19918;-71
2022/11/04 05:29:16;;;;;;;;;;;;;;;16.51;49.32;99027.31;4954761;29;19925;-70
2022/11/04 05:31:41;;;;;;;;;;;;;;;16.60;47.91;99023.78;4954877;29;19930;-70
2022/11/04 05:34:08;;;;;;;;;;;;;;;16.71;47.00;99022.75;4953633;29;19926;-71
2022/11/04 05:36:34;;;;;;;;;;;;;;;16.86;46.29;99021.28;4953538;29;20310;-70
2022/11/04 05:38:59;;;;;;;;;;;;;;;17.02;45.71;99020.59;4937454;29;19923;-70
2022/11/04 05:41:24;;;;;;;;;;;;;;;17.23;45.18;99022.91;4938220;28;19977;-69
2022/11/04 05:43:53;;;;;;;;;;;;;;;17.48;44.23;99020.47;4972564;28;19918;-71
2022/11/04 05:46:19;;;;;;;;;;;;;;;17.72;42.83;99023.25;4972776;28;20368;-69
2022/11/04 05:48:44;;;;;;;;;;;;;;;17.99;42.19;99034.66;4973840;28;19918;-71
2022/11/04 05:51:13;;;;;;;;;;;;;;;18.30;41.64;99035.97;4969168;28;19923;-70
2022/11/04 05:53:39;;;;;;;;;;;;;;;18.63;40.71;99040.34;4953448;29;19930;-72
2022/11/04 05:56:04;;;;;;;;;;;;;;;18.97;39.97;99039.44;4953375;29;19925;-72
2022/11/04 05:58:29;;;;;;;;;;;;;;;19.32;39.29;99037.50;4953652;29;19922;-70
2022/11/04 06:01:09;;;;;;;;;;;;;;;19.71;38.57;99046.53;4953220;29;19923;-71
2022/11/04 06:03:34;;;;;;;;;;;;;;;20.10;37.80;99032.56;4952846;29;20017;-71
2022/11/04 06:05:59;;;;;;;;;;;;;;;20.47;36.99;99044.31;4953278;29;20029;-71
2022/11/04 06:08:25;;;;;;;;;;;;;;;20.96;38.73;99045.91;4953680;29;19919;-71
2022/11/04 06:10:50;;;;;;;;;;;;;;;21.49;36.40;99043.34;4954418;29;19926;-71
2022/11/04 06:13:15;;;;;;;;;;;;;;;21.95;35.22;99050.34;4937191;29;20342;-73
2022/11/04 06:15:40;;;;;;;;;;;;;;;22.39;34.39;99053.03;4953019;29;19927;-72
2022/11/04 06:18:06;;;;;;;;;;;;;;;22.91;33.00;99047.66;4960698;28;19986;-72
2022/11/04 06:20:31;;;;;;;;;;;;;;;23.48;31.94;99057.44;4972645;28;19922;-72
2022/11/04 06:22:56;;;;;;;;;;;;;;;24.10;30.61;99052.34;4972419;28;20456;-71
2022/11/04 06:25:22;;;;;;;;;;;;;;;24.81;29.28;99063.72;4988485;28;19973;-73
2022/11/04 06:27:47;;;;;;;;;;;;;;;25.67;28.01;99055.00;4975507;28;19918;-72
2022/11/04 06:30:12;;;;;;;;;;;;;;;26.60;26.44;99047.72;4976373;28;19918;-73
2022/11/04 06:32:38;;;;;;;;;;;;;;;27.53;25.16;99055.19;4977356;28;19925;-72
2022/11/04 06:35:03;;;;;;;;;;;;;;;28.26;23.79;99056.34;4976398;28;19925;-74
2022/11/04 06:37:28;;;;;;;;;;;;;;;28.86;22.82;99054.75;4977255;28;19926;-73
2022/11/04 06:39:54;;;;;;;;;;;;;;;29.28;22.23;99057.44;4960281;28;20370;-72
2022/11/04 06:42:19;;;;;;;;;;;;;;;29.55;21.98;99062.38;4959835;28;19925;-73
2022/11/04 06:44:44;;;;;;;;;;;;;;;29.69;21.68;99062.97;4959669;28;19918;-72
2022/11/04 06:47:10;;;;;;;;;;;;;;;29.69;21.58;99065.66;4944258;28;19972;-72
2022/11/04 06:49:35;;;;;;;;;;;;;;;29.51;21.37;99063.91;4942986;28;19918;-73
2022/11/04 06:52:01;;;;;;;;;;;;;;;29.33;21.87;99062.94;4959732;28;19960;-73
2022/11/04 06:54:26;;;;;;;;;;;;;;;29.23;22.26;99070.78;4949857;29;20420;-71
2022/11/04 06:56:51;;;;;;;;;;;;;;;29.14;22.02;99072.13;4956332;29;19944;-74
2022/11/04 06:59:17;;;;;;;;;;;;;;;29.11;22.18;99073.38;4956377;29;19918;-72
2022/11/04 07:01:43;;;;;;;;;;;;;;;29.10;22.04;99073.63;4940642;29;19926;-72
2022/11/04 07:04:08;;;;;;;;;;;;;;;29.09;22.36;99070.13;4956056;29;19918;-73
2022/11/04 07:06:33;;;;;;;;;;;;;;;29.09;21.93;99067.44;4956134;29;19923;-72
2022/11/04 07:08:59;;;;;;;;;;;;;;;29.14;22.12;99066.75;4940166;29;20279;-72
2022/11/04 07:11:25;;;;;;;;;;;;;;;29.18;22.35;99067.94;4939931;29;19918;-71
2022/11/04 07:13:50;;;;;;;;;;;;;;;29.18;21.93;99063.38;4956105;29;19918;-72
2022/11/04 07:16:15;;;;;;;;;;;;;;;29.23;22.22;99065.41;4940042;29;20009;-73
2022/11/04 07:18:40;;;;;;;;;;;;;;;29.30;22.25;99055.34;4956279;29;20389;-71
2022/11/04 07:21:06;;;;;;;;;;;;;;;29.46;21.92;99063.78;4939756;29;19974;-72
2022/11/04 07:23:31;;;;;;;;;;;;;;;29.63;21.54;99066.59;4939910;29;19925;-74
2022/11/04 07:26:00;;;;;;;;;;;;;;;29.84;21.52;99066.06;4939820;29;19919;-72
2022/11/04 07:28:25;;;;;;;;;;;;;;;29.96;21.48;99057.97;4956215;29;19923;-73
2022/11/04 07:30:51;;;;;;;;;;;;;;;30.04;21.13;99052.22;4942156;28;20349;-72
2022/11/04 07:33:17;;;;;;;;;;;;;;;30.13;20.79;99055.38;4958809;28;19918;-72
2022/11/04 07:35:43;;;;;;;;;;;;;;;30.26;20.56;99049.69;4958766;28;20369;-73
2022/11/04 07:38:08;;;;;;;;;;;;;;;30.34;20.64;99045.00;4958570;28;19922;-72
2022/11/04 07:40:34;;;;;;;;;;;;;;;30.44;20.82;99042.53;4975240;28;20394;-73
2022/11/04 07:43:00;;;;;;;;;;;;;;;30.51;20.53;99037.84;4976050;28;19919;-73
2022/11/04 07:45:25;;;;;;;;;;;;;;;30.60;20.54;99040.94;4958662;28;19918;-72
2022/11/04 07:47:50;;;;;;;;;;;;;;;30.62;20.29;99028.88;4942388;28;19919;-72
2022/11/04 07:50:16;;;;;;;;;;;;;;;30.67;20.43;99030.84;4942940;28;19925;-73
2022/11/04 07:52:41;;;;;;;;;;;;;;;30.65;20.92;99028.41;4975798;28;20525;-72
2022/11/04 07:55:07;;;;;;;;;;;;;;;30.69;21.12;99027.91;4958951;28;19918;-72
2022/11/04 07:57:32;;;;;;;;;;;;;;;30.64;21.29;99028.63;4959046;28;19918;-73
2022/11/04 07:59:58;;;;;;;;;;;;;;;30.56;21.65;99031.72;4976014;28;19969;-72
2022/11/04 08:02:23;;;;;;;;;;;;;;;30.29;22.11;99016.09;4975696;28;20088;-72
2022/11/04 08:04:49;;;;;;;;;;;;;;;29.57;22.85;99014.56;4958010;28;19925;-76
2022/11/04 08:07:15;;;;;;;;;;;;;;;28.92;23.55;99018.91;4958556;28;20383;-72
2022/11/04 08:09:40;;;;;;;;;;;;;;;28.35;24.33;99013.88;4975483;28;19965;-73
2022/11/04 08:12:05;;;;;;;;;;;;;;;27.82;25.32;99007.25;4957973;28;19921;-72
2022/11/04 08:14:31;;;;;;;;;;;;;;;27.26;26.32;99012.50;4942492;28;19918;-71
2022/11/04 08:16:56;;;;;;;;;;;;;;;26.75;27.00;99010.00;4957957;28;20369;-73
2022/11/04 08:19:22;;;;;;;;;;;;;;;26.35;27.84;99006.47;4942793;28;20259;-73
2022/11/04 08:21:47;;;;;;;;;;;;;;;25.94;28.46;99006.81;4958003;28;19953;-73
2022/11/04 08:24:12;;;;;;;;;;;;;;;25.52;29.52;99012.44;4975351;28;20387;-73
2022/11/04 08:26:38;;;;;;;;;;;;;;;25.13;30.32;99008.72;4957971;28;20281;-72
2022/11/04 08:29:06;;;;;;;;;;;;;;;24.78;30.91;98995.56;4938638;29;20046;-72
2022/11/04 08:31:32;;;;;;;;;;;;;;;24.48;31.67;98997.69;4938493;29;20386;-73
2022/11/04 08:33:58;;;;;;;;;;;;;;;24.20;32.26;98994.13;4956136;29;20013;-72
2022/11/04 08:36:27;;;;;;;;;;;;;;;23.97;32.64;98993.59;4941574;28;19926;-72
2022/11/04 08:38:53;;;;;;;;;;;;;;;23.75;33.24;98993.69;4954407;29;20322;-73
2022/11/04 08:41:19;;;;;;;;;;;;;;;23.53;33.62;98994.75;4955504;29;19919;-73
2022/11/04 08:43:45;;;;;;;;;;;;;;;23.32;34.25;98992.97;4954434;29;19930;-73
2022/11/04 08:46:10;;;;;;;;;;;;;;;23.18;34.45;98984.84;4969252;28;19922;-73
2022/11/04 08:48:36;;;;;;;;;;;;;;;23.05;34.79;98992.72;4973864;28;19924;-72
2022/11/04 08:51:01;;;;;;;;;;;;;;;22.93;34.97;98985.25;4973241;28;20353;-72
2022/11/04 08:53:27;;;;;;;;;;;;;;;22.83;35.55;98987.38;4973920;28;19961;-72
2022/11/04 08:55:52;;;;;;;;;;;;;;;22.75;35.72;98985.69;4989652;28;19945;-72
2022/11/04 08:58:18;;;;;;;;;;;;;;;22.66;35.89;98981.50;4973478;28;19925;-72
2022/11/04 09:00:43;;;;;;;;;;;;;;;22.59;35.97;98983.28;4973900;28;19929;-72
2022/11/04 09:03:08;;;;;;;;;;;;;;;22.54;36.23;98980.34;4974679;28;19918;-72
2022/11/04 09:05:43;;;;;;;;;;;;;;;22.47;36.07;98979.44;4974553;28;19926;-72
2022/11/04 09:08:09;;;;;;;;;;;;;;;22.39;36.39;98983.88;4989572;28;19964;-72
2022/11/04 09:10:35;;;;;;;;;;;;;;;22.31;36.36;98983.16;4973194;28;19997;-75
2022/11/04 09:13:00;;;;;;;;;;;;;;;22.20;36.67;98979.97;4973645;28;19918;-72
2022/11/04 09:15:26;;;;;;;;;;;;;;;22.09;36.92;98966.31;4974423;28;20377;-71
2022/11/04 09:17:51;;;;;;;;;;;;;;;22.02;37.18;98966.22;4973210;28;20013;-73
2022/11/04 09:20:16;;;;;;;;;;;;;;;21.91;37.39;98970.19;4989189;28;19977;-72
2022/11/04 09:22:41;;;;;;;;;;;;;;;21.82;37.49;98968.63;4974600;28;19976;-73
2022/11/04 09:25:07;;;;;;;;;;;;;;;21.77;37.88;98963.03;4956937;28;19922;-72
2022/11/04 09:27:32;;;;;;;;;;;;;;;21.69;38.17;98958.63;4972927;28;19918;-73
2022/11/04 09:29:57;;;;;;;;;;;;;;;21.64;38.38;98955.72;4972997;28;19925;-72
2022/11/04 09:32:23;;;;;;;;;;;;;;;21.57;38.52;98949.47;4973095;28;20015;-74
2022/11/04 09:34:48;;;;;;;;;;;;;;;21.56;38.75;98942.53;4972652;28;20382;-75
2022/11/04 09:37:14;;;;;;;;;;;;;;;21.55;38.52;98936.38;4973658;28;20409;-74
2022/11/04 09:39:40;;;;;;;;;;;;;;;21.53;38.88;98929.63;4974230;28;20353;-73
2022/11/04 09:42:05;;;;;;;;;;;;;;;21.50;38.86;98931.59;4974065;28;19924;-73
2022/11/04 09:44:39;;;;;;;;;;;;;;;21.49;38.98;98922.00;4974158;28;19918;-73
2022/11/04 09:47:06;;;;;;;;;;;;;;;21.44;39.09;98927.03;4974153;28;19918;-72
2022/11/04 09:49:33;;;;;;;;;;;;;;;21.43;39.43;98921.91;4957197;28;19977;-73
2022/11/04 09:51:58;;;;;;;;;;;;;;;21.43;39.50;98920.06;4956679;28;19918;-75
2022/11/04 09:54:44;;;;;;;;;;;;;;;21.41;39.47;98921.22;4940676;28;19925;-73
2022/11/04 09:57:12;;;;;;;;;;;;;;;21.40;39.50;98914.28;4973162;28;19925;-72
2022/11/04 09:59:37;;;;;;;;;;;;;;;21.37;39.80;98910.16;4947863;29;19922;-73
2022/11/04 10:02:18;;;;;;;;;;;;;;;21.41;39.42;98905.31;4938094;29;20018;-72
2022/11/04 10:04:44;;;;;;;;;;;;;;;21.37;39.71;98904.03;4957183;29;20412;-73
2022/11/04 10:07:21;;;;;;;;;;;;;;;21.36;39.61;98881.94;4957392;29;19926;-73
2022/11/04 10:10:07;;;;;;;;;;;;;;;21.37;39.52;98890.75;4958346;29;20410;-73
2022/11/04 10:12:32;;;;;;;;;;;;;;;21.36;39.64;98878.47;4940473;29;19918;-73
2022/11/04 10:15:16;;;;;;;;;;;;;;;21.35;39.69;98871.50;4956888;29;19962;-73
2022/11/04 10:17:46;;;;;;;;;;;;;;;21.32;39.71;98859.44;4957949;29;20010;-73
2022/11/04 10:20:11;;;;;;;;;;;;;;;21.32;39.79;98859.44;4941412;29;20017;-73
2022/11/04 10:22:50;;;;;;;;;;;;;;;21.29;39.65;98851.84;4956605;29;20013;-73
2022/11/04 10:25:22;;;;;;;;;;;;;;;21.33;39.80;98845.16;4958168;29;19958;-72
2022/11/04 10:27:48;;;;;;;;;;;;;;;21.35;39.85;98844.97;4940837;29;19953;-73
2022/11/04 10:30:23;;;;;;;;;;;;;;;21.36;39.66;98844.78;4940990;29;19961;-72
2022/11/04 10:33:08;;;;;;;;;;;;;;;21.32;39.73;98836.38;4956883;29;19954;-72
2022/11/04 10:35:41;;;;;;;;;;;;;;;21.32;39.67;98833.72;4940077;29;19926;-72
2022/11/04 10:38:20;;;;;;;;;;;;;;;21.35;39.67;98826.38;4940693;29;20397;-73
2022/11/04 10:40:48;;;;;;;;;;;;;;;21.34;39.63;98820.25;4940620;29;19919;-73
2022/11/04 10:43:14;;;;;;;;;;;;;;;21.39;39.41;98817.84;4940639;29;19918;-73
2022/11/04 10:46:00;;;;;;;;;;;;;;;21.48;39.57;98819.44;4940554;29;19922;-71
2022/11/04 10:48:30;;;;;;;;;;;;;;;21.57;39.37;98812.22;4879831;29;19971;-73
2022/11/04 10:50:56;;;;;;;;;;;;;;;21.64;39.40;98809.63;4864654;29;19927;-74
2022/11/04 10:53:24;;;;;;;;;;;;;;;21.73;39.28;98799.69;4864243;29;20416;-74
2022/11/04 10:56:03;;;;;;;;;;;;;;;21.83;38.96;98794.91;4864245;29;20385;-73
2022/11/04 10:58:33;;;;;;;;;;;;;;;21.86;39.11;98787.38;4864287;29;20003;-73
2022/11/04 11:00:58;;;;;;;;;;;;;;;21.90;38.69;98787.84;4863982;29;19926;-73
2022/11/04 11:03:33;;;;;;;;;;;;;;;22.01;38.33;98786.50;4864032;29;19924;-72
2022/11/04 11:06:16;;;;;;;;;;;;;;;22.01;38.42;98782.03;4863962;29;20375;-73
2022/11/04 11:08:42;;;;;;;;;;;;;;;22.04;38.53;98773.66;4864136;29;19923;-73
2022/11/04 11:11:07;;;;;;;;;;;;;;;22.04;38.38;98778.97;4863635;29;20358;-71
2022/11/04 11:13:33;;;;;;;;;;;;;;;22.05;38.44;98769.16;4863676;29;19920;-73
2022/11/04 11:15:58;;;;;;;;;;;;;;;;;;4863980;29;19923;-74
2022/11/04 11:18:27;;;;;;;;;;;;;;;22.19;38.15;98776.25;4864079;29;19976;-75
2022/11/04 11:21:11;;;;;;;;;;;;;;;22.45;37.85;98758.06;4864349;29;19930;-73
2022/11/04 11:23:38;;;;;;;;;;;;;;;22.42;37.53;98748.63;4863595;29;20010;-72
2022/11/04 11:26:03;;;;;;;;;;;;;;;22.45;37.87;98745.59;4932815;28;19922;-74
2022/11/04 11:28:29;;;;;;;;;;;;;;;22.60;37.65;98742.84;4959524;28;19922;-73
2022/11/04 11:30:55;;;;;;;;;;;;;;;22.66;37.49;98746.53;4943161;28;20066;-73
2022/11/04 11:33:20;;;;;;;;;;;;;;;22.65;37.30;98732.44;4959058;28;19972;-72
2022/11/04 11:36:11;;;;;;;;;;;;;;;22.53;37.76;98729.50;4976214;28;19918;-71
2022/11/04 11:38:37;;;;;;;;;;;;;;;22.45;37.72;98723.50;4958899;28;19923;-73
2022/11/04 11:41:12;;;;;;;;;;;;;;;22.42;37.97;98718.56;4958939;28;19925;-73
2022/11/04 11:43:39;;;;;;;;;;;;;;;22.44;37.46;98712.03;4958652;28;20357;-72
2022/11/04 11:46:04;;;;;;;;;;;;;;;22.42;37.84;98715.91;4942759;28;19922;-73
2022/11/04 11:48:31;;;;;;;;;;;;;;;22.40;37.99;98713.44;4959059;28;20028;-72
2022/11/04 11:50:58;;;;;;;;;;;;;;;22.42;37.79;98715.91;4958325;28;19929;-73
2022/11/04 11:53:24;;;;;;;;;;;;;;;22.40;38.20;98710.78;4942946;28;20204;-73
2022/11/04 11:55:58;;;;;;;;;;;;;;;22.43;37.99;98702.41;4942686;28;20398;-72
2022/11/04 11:58:43;;;;;;;;;;;;;;;22.50;37.66;98702.44;4958781;28;19925;-73
2022/11/04 12:01:16;;;;;;;;;;;;;;;22.52;37.42;98700.44;4975713;28;20389;-74
2022/11/04 12:03:42;;;;;;;;;;;;;;;22.55;37.67;98702.69;4958489;28;19924;-72
2022/11/04 12:06:14;;;;;;;;;;;;;;;22.59;37.55;98701.28;4958843;28;20297;-73
2022/11/04 12:08:51;;;;;;;;;;;;;;;22.63;37.42;98696.38;4958318;28;20294;-72
2022/11/04 12:11:26;;;;;;;;;;;;;;;22.59;37.20;98696.78;4958152;28;19925;-73
2022/11/04 12:13:55;;;;;;;;;;;;;;;22.57;37.59;98688.19;4958941;28;19945;-73
2022/11/04 12:16:36;;;;;;;;;;;;;;;22.49;37.52;98685.69;4958371;28;20279;-73
2022/11/04 12:19:07;;;;;;;;;;;;;;;22.39;37.69;98690.50;4958061;28;20009;-73
2022/11/04 12:21:34;;;;;;;;;;;;;;;22.28;37.68;98681.22;4975465;28;19925;-73
2022/11/04 12:24:18;;;;;;;;;;;;;;;22.22;37.77;98674.84;4957805;28;19926;-73
2022/11/04 12:27:04;;;;;;;;;;;;;;;22.17;38.17;98671.09;4975247;28;19919;-73
2022/11/04 12:29:45;;;;;;;;;;;;;;;22.15;37.99;98671.28;4971800;28;19956;-73
2022/11/04 12:32:29;;;;;;;;;;;;;;;22.17;38.20;98665.78;4955929;29;19961;-72
2022/11/04 12:35:01;;;;;;;;;;;;;;;22.29;37.93;98663.41;4954619;29;19923;-73
2022/11/04 12:37:45;;;;;;;;;;;;;;;22.35;37.80;98668.00;4956013;29;19933;-72
2022/11/04 12:40:16;;;;;;;;;;;;;;;22.31;37.92;98667.56;4955981;29;20002;-73
2022/11/04 12:42:56;;;;;;;;;;;;;;;22.27;37.98;98665.47;4955868;29;20450;-72
2022/11/04 12:45:34;;;;;;;;;;;;;;;22.29;37.91;98658.91;4955829;29;19986;-73
2022/11/04 12:48:08;;;;;;;;;;;;;;;22.26;38.04;98658.50;4955503;29;19918;-73
2022/11/04 12:50:52;;;;;;;;;;;;;;;22.17;37.86;98647.16;4954303;29;19922;-72
2022/11/04 12:53:36;;;;;;;;;;;;;;;22.02;38.20;98639.31;4953946;29;19919;-73
2022/11/04 12:56:03;;;;;;;;;;;;;;;21.88;38.86;98642.88;4954232;29;19922;-72
2022/11/04 12:58:38;;;;;;;;;;;;;;;21.79;39.16;98640.38;4953834;29;20024;-73
2022/11/04 13:01:06;;;;;;;;;;;;;;;21.73;39.14;98635.81;4955713;29;19922;-73
2022/11/04 13:03:51;;;;;;;;;;;;;;;21.75;39.06;98639.09;4954237;29;19918;-73
2022/11/04 13:06:25;;;;;;;;;;;;;;;21.76;39.12;98631.94;4937358;29;20287;-73
2022/11/04 13:09:12;;;;;;;;;;;;;;;21.72;39.19;98628.84;4954148;29;19925;-72
2022/11/04 13:11:52;;;;;;;;;;;;;;;21.66;39.41;98625.16;4954568;29;20021;-73
2022/11/04 13:14:28;;;;;;;;;;;;;;;21.64;39.08;98623.69;4937709;29;19918;-73
2022/11/04 13:16:53;;;;;;;;;;;;;;;21.61;39.37;98624.06;4937887;29;19976;-72
2022/11/04 13:19:25;;;;;;;;;;;;;;;21.57;39.58;98620.97;4937707;29;19923;-72
2022/11/04 13:21:50;;;;;;;;;;;;;;;21.50;39.77;98623.53;4955067;29;19919;-73